createdAt,value
2023-03-30T00:01:43.223Z,58.18
2023-03-30T00:03:47.543Z,58.41
2023-03-30T00:05:52.359Z,59.51
2023-03-30T00:07:55.107Z,60.78
2023-03-30T00:10:02.822Z,61.91
2023-03-30T00:12:05.414Z,61.74
2023-03-30T00:14:08.029Z,60.68
2023-03-30T00:16:13.222Z,61.00
2023-03-30T00:18:15.835Z,60.18
2023-03-30T00:20:20.571Z,60.26
2023-03-30T00:22:24.467Z,60.28
2023-03-30T00:24:27.030Z,59.96
2023-03-30T00:26:29.621Z,60.04
2023-03-30T00:28:32.741Z,60.62
2023-03-30T00:30:36.983Z,61.04
2023-03-30T00:32:39.622Z,61.08
2023-03-30T00:34:42.414Z,61.68
2023-03-30T00:36:46.574Z,62.55
2023-03-30T00:38:50.534Z,63.05
2023-03-30T00:40:54.757Z,63.23
2023-03-30T00:42:59.796Z,63.04
2023-03-30T00:45:21.796Z,63.13
2023-03-30T00:47:24.373Z,63.12
2023-03-30T00:49:27.070Z,63.08
2023-03-30T00:51:29.818Z,62.88
2023-03-30T00:53:35.478Z,63.08
2023-03-30T00:55:41.688Z,63.84
2023-03-30T00:57:45.254Z,64.50
2023-03-30T00:59:48.225Z,64.72
2023-03-30T01:01:50.890Z,64.94
2023-03-30T01:03:53.831Z,65.09
2023-03-30T01:05:58.135Z,65.42
2023-03-30T01:08:01.078Z,65.58
2023-03-30T01:10:04.772Z,65.66
2023-03-30T01:12:08.937Z,65.62
2023-03-30T01:14:13.804Z,65.60
2023-03-30T01:16:29.164Z,65.60
2023-03-30T01:18:42.689Z,65.59
2023-03-30T01:21:29.934Z,66.04
2023-03-30T01:24:11.072Z,66.48
2023-03-30T01:26:35.135Z,66.27
2023-03-30T01:28:46.836Z,66.55
2023-03-30T01:31:13.073Z,66.39
2023-03-30T01:33:41.102Z,66.33
2023-03-30T01:36:25.370Z,65.78
2023-03-30T01:39:02.333Z,65.71
2023-03-30T01:41:13.993Z,66.04
2023-03-30T01:43:20.714Z,66.45
2023-03-30T01:45:31.651Z,67.08
2023-03-30T01:47:39.163Z,67.22
2023-03-30T01:49:47.046Z,67.60
2023-03-30T01:51:58.458Z,68.05
2023-03-30T01:54:06.883Z,68.41
2023-03-30T01:56:18.211Z,68.87
2023-03-30T01:58:27.599Z,68.66
2023-03-30T02:00:31.536Z,69.18
2023-03-30T02:02:35.759Z,69.89
2023-03-30T02:04:45.731Z,70.78
2023-03-30T02:06:52.879Z,72.00
2023-03-30T02:09:00.344Z,72.25
2023-03-30T02:11:03.262Z,73.01
2023-03-30T02:13:08.621Z,73.21
2023-03-30T02:15:15.349Z,73.65
2023-03-30T02:17:21.165Z,73.82
2023-03-30T02:19:23.731Z,74.72
2023-03-30T02:21:27.512Z,74.74
2023-03-30T02:23:35.395Z,75.10
2023-03-30T02:25:39.298Z,75.36
2023-03-30T02:27:42.766Z,75.71
2023-03-30T02:29:47.551Z,76.05
2023-03-30T02:31:54.228Z,76.18
2023-03-30T02:34:10.441Z,75.97
2023-03-30T02:36:29.001Z,75.50
2023-03-30T02:38:48.553Z,75.38
2023-03-30T02:40:59.321Z,73.74
2023-03-30T02:43:18.767Z,72.97
2023-03-30T02:45:34.788Z,72.81
2023-03-30T02:47:48.047Z,72.28
2023-03-30T02:49:56.011Z,71.55
2023-03-30T02:52:09.671Z,71.66
2023-03-30T02:54:24.496Z,72.24
2023-03-30T02:56:37.559Z,72.59
2023-03-30T02:58:43.743Z,72.60
2023-03-30T03:00:52.101Z,73.60
2023-03-30T03:02:59.038Z,73.99
2023-03-30T03:05:04.228Z,74.55
2023-03-30T03:07:06.842Z,74.70
2023-03-30T03:09:10.022Z,75.27
2023-03-30T03:11:12.912Z,76.13
2023-03-30T03:13:16.218Z,76.61
2023-03-30T03:15:18.979Z,76.94
2023-03-30T03:17:23.087Z,77.06
2023-03-30T03:19:25.639Z,77.08
2023-03-30T03:21:28.203Z,77.59
2023-03-30T03:23:30.770Z,77.94
2023-03-30T03:25:33.359Z,78.34
2023-03-30T03:27:36.508Z,78.37
2023-03-30T03:29:39.080Z,78.55
2023-03-30T03:31:41.683Z,79.46
2023-03-30T03:33:45.899Z,79.31
2023-03-30T03:35:48.528Z,79.43
2023-03-30T03:37:51.095Z,79.65
2023-03-30T03:39:53.655Z,79.95
2023-03-30T03:41:56.285Z,79.85
2023-03-30T03:43:58.823Z,79.88
2023-03-30T03:46:01.419Z,79.95
2023-03-30T03:48:08.314Z,80.10
2023-03-30T03:50:12.479Z,79.26
2023-03-30T03:52:15.329Z,79.32
2023-03-30T03:54:18.099Z,79.37
2023-03-30T03:56:20.666Z,78.91
2023-03-30T03:58:23.902Z,79.06
2023-03-30T04:00:26.780Z,79.13
2023-03-30T04:02:29.551Z,79.19
2023-03-30T04:04:32.299Z,78.85
2023-03-30T04:06:36.234Z,78.99
2023-03-30T04:08:38.901Z,78.96
2023-03-30T04:10:42.574Z,79.16
2023-03-30T04:12:45.150Z,79.16
2023-03-30T04:14:47.732Z,79.38
2023-03-30T04:16:51.365Z,79.68
2023-03-30T04:18:54.056Z,79.27
2023-03-30T04:20:57.048Z,79.31
2023-03-30T04:23:02.168Z,79.63
2023-03-30T04:25:07.015Z,79.67
2023-03-30T04:27:09.754Z,78.86
2023-03-30T04:29:12.295Z,79.26
2023-03-30T04:31:15.113Z,79.32
2023-03-30T04:33:18.026Z,79.13
2023-03-30T04:35:20.630Z,77.91
2023-03-30T04:37:30.096Z,76.47
2023-03-30T04:39:34.001Z,76.40
2023-03-30T04:41:36.570Z,76.64
2023-03-30T04:43:39.158Z,76.04
2023-03-30T04:45:42.197Z,75.84
2023-03-30T04:47:45.169Z,75.68
2023-03-30T04:49:47.761Z,74.83
2023-03-30T04:51:50.423Z,75.46
2023-03-30T04:53:56.279Z,74.30
2023-03-30T04:56:00.174Z,74.53
2023-03-30T04:58:03.013Z,75.22
2023-03-30T05:00:09.168Z,75.56
2023-03-30T05:02:13.634Z,75.40
2023-03-30T05:04:16.261Z,75.47
2023-03-30T05:06:18.864Z,75.66
2023-03-30T05:08:21.486Z,75.71
2023-03-30T05:10:26.142Z,75.70
2023-03-30T05:12:30.055Z,75.72
2023-03-30T05:14:32.614Z,74.60
2023-03-30T05:16:35.353Z,74.15
2023-03-30T05:18:38.835Z,73.67
2023-03-30T05:20:41.442Z,73.82
2023-03-30T05:22:44.297Z,74.12
2023-03-30T05:24:46.937Z,74.24
2023-03-30T05:26:49.478Z,74.20
2023-03-30T05:28:53.444Z,74.08
2023-03-30T05:30:56.783Z,74.15
2023-03-30T05:32:59.574Z,74.12
2023-03-30T05:35:02.352Z,73.68
2023-03-30T05:37:04.915Z,73.45
2023-03-30T05:39:07.561Z,72.08
2023-03-30T05:41:10.126Z,71.85
2023-03-30T05:43:12.795Z,71.26
2023-03-30T05:45:16.778Z,70.94
2023-03-30T05:47:19.362Z,70.24
2023-03-30T05:49:21.910Z,70.17
2023-03-30T05:51:24.714Z,70.51
2023-03-30T05:53:27.368Z,68.58
2023-03-30T05:55:30.026Z,68.44
2023-03-30T05:57:33.653Z,68.25
2023-03-30T05:59:37.216Z,67.89
2023-03-30T06:01:41.312Z,68.41
2023-03-30T06:03:44.069Z,68.00
2023-03-30T06:05:47.901Z,68.48
2023-03-30T06:07:50.557Z,68.49
2023-03-30T06:09:53.132Z,68.54
2023-03-30T06:11:55.754Z,68.51
2023-03-30T06:13:58.423Z,68.38
2023-03-30T06:16:03.036Z,67.69
2023-03-30T06:18:07.220Z,68.16
2023-03-30T06:20:12.395Z,68.49
2023-03-30T06:22:14.973Z,69.78
2023-03-30T06:24:18.715Z,70.75
2023-03-30T06:26:21.288Z,72.01
2023-03-30T06:28:23.911Z,72.74
2023-03-30T06:30:26.753Z,73.42
2023-03-30T06:32:29.551Z,74.04
2023-03-30T06:34:33.488Z,74.17
2023-03-30T06:36:44.986Z,74.62
2023-03-30T06:38:49.533Z,74.97
2023-03-30T06:40:52.093Z,75.26
2023-03-30T06:42:54.659Z,75.98
2023-03-30T06:44:57.215Z,76.69
2023-03-30T06:46:59.828Z,77.25
2023-03-30T06:49:02.801Z,78.08
2023-03-30T06:51:07.654Z,78.42
2023-03-30T06:53:10.275Z,78.94
2023-03-30T06:55:13.030Z,79.15
2023-03-30T06:57:15.664Z,79.61
2023-03-30T06:59:18.416Z,79.63
2023-03-30T07:01:21.092Z,80.05
2023-03-30T07:03:23.918Z,79.93
2023-03-30T07:05:28.571Z,79.88
2023-03-30T07:07:32.557Z,79.86
2023-03-30T07:09:35.137Z,79.85
2023-03-30T07:11:37.676Z,79.79
2023-03-30T07:13:40.302Z,79.82
2023-03-30T07:15:42.952Z,78.90
2023-03-30T07:17:46.067Z,78.38
2023-03-30T07:19:48.716Z,78.13
2023-03-30T07:21:51.267Z,78.34
2023-03-30T07:23:55.819Z,78.13
2023-03-30T07:25:58.454Z,77.20
2023-03-30T07:28:02.153Z,75.32
2023-03-30T07:30:17.975Z,73.97
2023-03-30T07:32:25.117Z,72.47
2023-03-30T07:34:27.768Z,72.21
2023-03-30T07:36:30.339Z,72.14
2023-03-30T07:38:33.311Z,72.27
2023-03-30T07:40:37.259Z,71.88
2023-03-30T07:42:40.006Z,73.10
2023-03-30T07:44:42.567Z,73.78
2023-03-30T07:46:45.524Z,73.93
2023-03-30T07:48:48.131Z,74.50
2023-03-30T07:50:50.760Z,75.05
2023-03-30T07:52:53.494Z,75.41
2023-03-30T07:54:56.814Z,75.84
2023-03-30T07:57:00.851Z,75.97
2023-03-30T07:59:04.424Z,76.07
2023-03-30T08:01:07.157Z,75.98
2023-03-30T08:03:10.075Z,76.21
2023-03-30T08:05:13.005Z,75.19
2023-03-30T08:07:16.558Z,74.35
2023-03-30T08:09:19.362Z,74.48
2023-03-30T08:11:22.072Z,73.21
2023-03-30T08:13:27.188Z,73.63
2023-03-30T08:15:29.770Z,73.73
2023-03-30T08:17:32.390Z,74.18
2023-03-30T08:19:35.012Z,74.15
2023-03-30T08:21:37.740Z,74.43
2023-03-30T08:23:40.306Z,73.33
2023-03-30T08:25:44.653Z,73.36
2023-03-30T08:27:48.521Z,73.68
2023-03-30T08:29:54.234Z,74.49
2023-03-30T08:31:56.986Z,74.98
2023-03-30T08:33:59.704Z,75.48
2023-03-30T08:36:02.333Z,76.07
2023-03-30T08:38:04.921Z,76.58
2023-03-30T08:40:10.951Z,76.88
2023-03-30T08:42:26.869Z,77.91
2023-03-30T08:44:35.048Z,78.50
2023-03-30T08:46:40.688Z,79.11
2023-03-30T08:48:44.514Z,79.31
2023-03-30T08:50:53.527Z,79.68
2023-03-30T08:52:56.170Z,80.06
2023-03-30T08:54:58.996Z,80.00
2023-03-30T08:57:09.176Z,80.56
2023-03-30T08:59:24.298Z,80.49
2023-03-30T09:01:34.664Z,80.92
2023-03-30T09:03:43.809Z,81.44
2023-03-30T09:05:52.609Z,81.01
2023-03-30T09:08:03.830Z,81.90
2023-03-30T09:10:13.090Z,81.98
2023-03-30T09:12:22.868Z,82.19
2023-03-30T09:14:33.025Z,82.70
2023-03-30T09:16:43.653Z,83.15
2023-03-30T09:18:52.224Z,83.03
2023-03-30T09:20:58.425Z,83.46
2023-03-30T09:23:02.931Z,83.19
2023-03-30T09:25:14.748Z,83.31
2023-03-30T09:27:22.002Z,79.74
2023-03-30T09:29:29.421Z,80.26
2023-03-30T09:31:39.961Z,80.08
2023-03-30T09:33:46.995Z,80.37
2023-03-30T09:36:05.105Z,80.30
2023-03-30T09:38:11.875Z,79.95
2023-03-30T09:40:27.582Z,80.44
2023-03-30T09:42:39.220Z,80.26
2023-03-30T09:44:48.172Z,80.21
2023-03-30T09:46:56.656Z,80.76
2023-03-30T09:49:14.378Z,80.84
2023-03-30T09:51:21.505Z,80.71
2023-03-30T09:53:26.243Z,80.96
2023-03-30T09:55:31.216Z,80.48
2023-03-30T09:57:34.126Z,80.63
2023-03-30T09:59:38.850Z,80.45
2023-03-30T10:01:42.517Z,80.27
2023-03-30T10:03:49.929Z,80.29
2023-03-30T10:06:03.914Z,81.04
2023-03-30T10:08:24.424Z,80.26
2023-03-30T10:10:35.949Z,80.54
2023-03-30T10:12:38.641Z,80.90
2023-03-30T10:14:41.518Z,79.71
2023-03-30T10:16:45.108Z,79.59
2023-03-30T10:18:47.842Z,80.42
2023-03-30T10:20:52.978Z,80.43
2023-03-30T10:22:57.223Z,80.25
2023-03-30T10:25:13.211Z,79.19
2023-03-30T10:27:15.866Z,79.80
2023-03-30T10:29:21.164Z,80.28
2023-03-30T10:31:27.933Z,78.68
2023-03-30T10:33:32.174Z,79.07
2023-03-30T10:35:38.194Z,79.08
2023-03-30T10:37:46.310Z,78.86
2023-03-30T10:39:50.369Z,78.92
2023-03-30T10:41:57.945Z,79.01
2023-03-30T10:44:11.667Z,76.73
2023-03-30T10:46:19.798Z,76.40
2023-03-30T10:48:45.768Z,76.31
2023-03-30T10:50:57.337Z,76.66
2023-03-30T10:53:14.026Z,76.32
2023-03-30T10:55:22.044Z,75.94
2023-03-30T10:57:41.511Z,76.16
2023-03-30T11:00:11.750Z,76.19
2023-03-30T11:02:30.541Z,75.65
2023-03-30T11:04:37.130Z,72.60
2023-03-30T11:06:42.814Z,73.23
2023-03-30T11:08:48.483Z,72.49
2023-03-30T11:10:54.508Z,71.77
2023-03-30T11:13:02.977Z,72.20
2023-03-30T11:15:10.796Z,73.18
2023-03-30T11:17:21.183Z,72.24
2023-03-30T11:19:26.983Z,72.36
2023-03-30T11:21:35.416Z,73.02
2023-03-30T11:23:46.121Z,73.18
2023-03-30T11:25:57.692Z,73.76
2023-03-30T11:28:12.947Z,74.27
2023-03-30T11:30:20.277Z,74.12
2023-03-30T11:32:31.172Z,74.07
2023-03-30T11:34:44.969Z,73.17
2023-03-30T11:36:56.005Z,72.92
2023-03-30T11:39:04.831Z,72.65
2023-03-30T11:41:14.304Z,73.12
2023-03-30T11:43:21.391Z,73.14
2023-03-30T11:45:42.223Z,73.63
2023-03-30T11:47:57.666Z,74.37
2023-03-30T11:50:16.677Z,72.29
2023-03-30T11:52:30.333Z,73.23
2023-03-30T11:54:59.800Z,74.24
2023-03-30T11:57:17.251Z,74.55
2023-03-30T11:59:29.432Z,74.63
2023-03-30T12:01:46.245Z,74.45
2023-03-30T12:03:53.594Z,74.33
2023-03-30T12:06:01.465Z,72.67
2023-03-30T12:08:14.810Z,71.80
2023-03-30T12:10:21.864Z,70.35
2023-03-30T12:12:32.739Z,69.19
2023-03-30T12:14:53.749Z,68.81
2023-03-30T12:17:00.409Z,69.56
2023-03-30T12:19:13.535Z,69.28
2023-03-30T12:21:27.453Z,69.14
2023-03-30T12:23:39.272Z,68.44
2023-03-30T12:25:48.541Z,67.06
2023-03-30T12:27:59.822Z,66.23
2023-03-30T12:30:24.467Z,66.74
2023-03-30T12:32:29.200Z,66.49
2023-03-30T12:34:34.818Z,66.95
2023-03-30T12:36:40.863Z,65.50
2023-03-30T12:38:48.099Z,65.39
2023-03-30T12:40:57.203Z,65.74
2023-03-30T12:43:08.643Z,64.50
2023-03-30T12:45:26.033Z,64.92
2023-03-30T12:47:53.446Z,64.76
2023-03-30T12:50:12.552Z,65.05
2023-03-30T12:52:23.634Z,64.50
2023-03-30T12:54:43.006Z,64.58
2023-03-30T12:56:57.246Z,65.68
2023-03-30T12:59:36.148Z,65.66
2023-03-30T13:01:51.969Z,65.77
2023-03-30T13:03:56.811Z,64.91
2023-03-30T13:06:02.353Z,64.05
2023-03-30T13:08:07.445Z,62.60
2023-03-30T13:10:48.456Z,61.90
2023-03-30T13:12:51.402Z,58.92
2023-03-30T13:15:00.290Z,58.97
2023-03-30T13:17:16.612Z,58.77
2023-03-30T13:19:27.576Z,57.72
2023-03-30T13:21:47.772Z,56.78
2023-03-30T13:24:19.436Z,55.40
2023-03-30T13:26:34.501Z,54.79
2023-03-30T13:28:58.233Z,53.42
2023-03-30T13:31:10.685Z,52.73
2023-03-30T13:33:21.817Z,51.17
2023-03-30T13:35:35.722Z,50.79
2023-03-30T13:38:07.689Z,50.22
2023-03-30T13:40:27.339Z,48.64
2023-03-30T13:42:50.455Z,48.80
2023-03-30T13:45:02.100Z,48.86
2023-03-30T13:47:13.097Z,47.49
2023-03-30T13:49:26.505Z,47.78
2023-03-30T13:51:30.245Z,47.12
2023-03-30T13:53:39.747Z,46.48
2023-03-30T13:55:45.296Z,45.56
2023-03-30T13:57:48.164Z,45.66
2023-03-30T13:59:53.768Z,45.74
2023-03-30T14:01:59.513Z,45.00
2023-03-30T14:04:03.808Z,44.77
2023-03-30T14:06:16.067Z,43.10
2023-03-30T14:08:19.455Z,43.54
2023-03-30T14:10:22.232Z,42.67
2023-03-30T14:12:24.887Z,42.17
2023-03-30T14:14:35.880Z,41.74
2023-03-30T14:16:41.175Z,40.92
2023-03-30T14:18:43.878Z,41.31
2023-03-30T14:20:49.200Z,42.13
2023-03-30T14:22:56.573Z,41.90
2023-03-30T14:25:01.284Z,42.42
2023-03-30T14:27:06.673Z,42.97
2023-03-30T14:29:24.605Z,43.62
2023-03-30T14:31:39.866Z,43.66
2023-03-30T14:33:42.807Z,44.12
2023-03-30T14:35:49.303Z,43.79
2023-03-30T14:37:53.722Z,44.76
2023-03-30T14:39:59.143Z,45.58
2023-03-30T14:42:11.025Z,45.03
2023-03-30T14:44:23.556Z,45.53
2023-03-30T14:46:32.098Z,46.51
2023-03-30T14:48:37.397Z,46.08
2023-03-30T14:50:40.063Z,46.09
2023-03-30T14:52:44.544Z,44.80
2023-03-30T14:55:04.291Z,44.69
2023-03-30T14:57:12.221Z,43.13
2023-03-30T14:59:19.060Z,43.70
2023-03-30T15:01:30.852Z,44.69
2023-03-30T15:03:37.379Z,45.24
2023-03-30T15:05:42.592Z,45.56
2023-03-30T15:07:49.000Z,46.55
2023-03-30T15:09:57.292Z,47.03
2023-03-30T15:12:02.055Z,47.46
2023-03-30T15:14:09.639Z,47.61
2023-03-30T15:16:17.509Z,47.71
2023-03-30T15:18:25.288Z,47.85
2023-03-30T15:20:30.664Z,47.50
2023-03-30T15:22:35.644Z,47.45
2023-03-30T15:24:40.560Z,47.26
2023-03-30T15:26:48.718Z,48.04
2023-03-30T15:28:54.842Z,47.46
2023-03-30T15:30:59.297Z,47.19
2023-03-30T15:33:02.398Z,47.07
2023-03-30T15:35:20.722Z,47.39
2023-03-30T15:37:23.885Z,47.42
2023-03-30T15:39:33.811Z,47.10
2023-03-30T15:41:48.384Z,46.74
2023-03-30T15:43:57.105Z,46.12
2023-03-30T15:46:03.044Z,46.30
2023-03-30T15:48:06.981Z,46.70
2023-03-30T15:50:13.710Z,46.86
2023-03-30T15:52:20.911Z,46.25
2023-03-30T15:54:31.207Z,46.60
2023-03-30T15:56:38.075Z,47.17
2023-03-30T15:58:43.423Z,47.72
2023-03-30T16:00:46.100Z,48.26
2023-03-30T16:02:52.930Z,48.69
2023-03-30T16:04:55.771Z,48.89
2023-03-30T16:06:58.475Z,48.67
2023-03-30T16:09:01.047Z,49.17
2023-03-30T16:11:04.441Z,49.26
2023-03-30T16:13:08.088Z,49.17
2023-03-30T16:15:14.478Z,48.42
2023-03-30T16:17:17.114Z,48.91
2023-03-30T16:19:25.367Z,48.56
2023-03-30T16:21:27.944Z,49.26
2023-03-30T16:23:30.603Z,49.51
2023-03-30T16:25:44.323Z,49.54
2023-03-30T16:27:47.995Z,48.75
2023-03-30T16:29:50.549Z,48.86
2023-03-30T16:31:55.577Z,49.46
2023-03-30T16:33:58.148Z,48.86
2023-03-30T16:36:00.841Z,49.30
2023-03-30T16:38:03.570Z,49.23
2023-03-30T16:40:18.332Z,48.95
2023-03-30T16:42:20.887Z,48.84
2023-03-30T16:44:25.414Z,49.21
2023-03-30T16:46:27.993Z,49.82
2023-03-30T16:48:31.890Z,48.78
2023-03-30T16:50:38.307Z,49.72
2023-03-30T16:52:40.966Z,49.66
2023-03-30T16:54:43.628Z,50.24
2023-03-30T16:56:46.327Z,50.17
2023-03-30T16:58:48.933Z,50.81
2023-03-30T17:00:53.254Z,50.76
2023-03-30T17:02:55.944Z,51.15
2023-03-30T17:04:59.893Z,51.77
2023-03-30T17:07:02.575Z,51.98
2023-03-30T17:09:05.200Z,52.11
2023-03-30T17:11:10.208Z,52.29
2023-03-30T17:13:12.774Z,52.26
2023-03-30T17:15:15.432Z,52.54
2023-03-30T17:17:18.329Z,53.37
2023-03-30T17:19:20.933Z,53.30
2023-03-30T17:21:24.830Z,53.85
2023-03-30T17:23:29.094Z,54.49
2023-03-30T17:25:31.695Z,54.68
2023-03-30T17:27:34.712Z,55.15
2023-03-30T17:29:37.286Z,55.21
2023-03-30T17:31:45.273Z,55.51
2023-03-30T17:33:48.666Z,55.55
2023-03-30T17:35:54.995Z,56.00
2023-03-30T17:37:59.733Z,56.13
2023-03-30T17:40:02.296Z,55.66
2023-03-30T17:42:05.314Z,56.08
2023-03-30T17:44:07.885Z,56.38
2023-03-30T17:46:12.223Z,56.50
2023-03-30T17:48:17.474Z,56.80
2023-03-30T17:50:23.841Z,56.78
2023-03-30T17:52:30.295Z,57.20
2023-03-30T17:54:34.361Z,57.18
2023-03-30T17:56:36.913Z,57.43
2023-03-30T17:58:39.716Z,57.73
2023-03-30T18:00:42.294Z,57.78
2023-03-30T18:02:44.936Z,57.65
2023-03-30T18:04:47.521Z,57.74
2023-03-30T18:06:50.140Z,57.79
2023-03-30T18:08:55.637Z,57.47
2023-03-30T18:11:01.908Z,57.68
2023-03-30T18:13:05.897Z,57.90
2023-03-30T18:15:08.928Z,57.92
2023-03-30T18:17:12.834Z,57.33
2023-03-30T18:19:15.377Z,57.49
2023-03-30T18:21:18.011Z,57.85
2023-03-30T18:23:21.341Z,57.17
2023-03-30T18:25:32.045Z,57.43
2023-03-30T18:27:37.476Z,57.59
2023-03-30T18:29:40.183Z,56.90
2023-03-30T18:31:42.778Z,56.79
2023-03-30T18:33:45.394Z,56.44
2023-03-30T18:35:50.328Z,56.75
2023-03-30T18:37:54.103Z,56.82
2023-03-30T18:39:56.653Z,56.63
2023-03-30T18:42:00.231Z,56.66
2023-03-30T18:44:04.159Z,57.13
2023-03-30T18:46:07.165Z,56.73
2023-03-30T18:48:13.701Z,56.97
2023-03-30T18:50:20.247Z,57.25
2023-03-30T18:52:22.810Z,57.40
2023-03-30T18:54:26.162Z,57.61
2023-03-30T18:56:28.737Z,57.79
2023-03-30T18:58:33.546Z,57.63
2023-03-30T19:00:37.717Z,57.87
2023-03-30T19:02:40.439Z,57.47
2023-03-30T19:04:43.059Z,58.30
2023-03-30T19:06:46.214Z,58.27
2023-03-30T19:08:48.866Z,58.65
2023-03-30T19:10:54.823Z,58.79
2023-03-30T19:12:58.109Z,58.89
2023-03-30T19:15:00.816Z,59.24
2023-03-30T19:17:04.762Z,58.93
2023-03-30T19:19:09.960Z,59.51
2023-03-30T19:21:16.463Z,59.67
2023-03-30T19:23:21.490Z,59.97
2023-03-30T19:25:25.577Z,60.13
2023-03-30T19:27:28.290Z,60.01
2023-03-30T19:29:30.883Z,60.07
2023-03-30T19:31:36.149Z,60.30
2023-03-30T19:33:41.108Z,60.26
2023-03-30T19:35:45.064Z,60.38
2023-03-30T19:37:47.687Z,60.56
2023-03-30T19:39:50.399Z,60.97
2023-03-30T19:41:53.009Z,60.81
2023-03-30T19:43:55.578Z,60.94
2023-03-30T19:45:58.271Z,61.18
2023-03-30T19:48:01.033Z,61.15
2023-03-30T19:50:11.208Z,61.04
2023-03-30T19:52:13.789Z,61.17
2023-03-30T19:54:16.337Z,61.51
2023-03-30T19:56:18.958Z,61.29
2023-03-30T19:58:21.507Z,61.57
2023-03-30T20:00:24.373Z,61.53
2023-03-30T20:02:27.006Z,61.63
2023-03-30T20:04:29.608Z,61.64
2023-03-30T20:06:35.837Z,61.73
2023-03-30T20:08:38.411Z,61.36
2023-03-30T20:10:41.139Z,61.28
2023-03-30T20:12:43.702Z,60.71
2023-03-30T20:14:46.597Z,60.91
2023-03-30T20:16:49.788Z,60.95
2023-03-30T20:18:56.992Z,61.27
2023-03-30T20:21:03.215Z,61.29
2023-03-30T20:23:07.431Z,60.95
2023-03-30T20:25:12.356Z,60.24
2023-03-30T20:27:14.901Z,60.24
2023-03-30T20:29:17.595Z,60.75
2023-03-30T20:31:20.207Z,60.91
2023-03-30T20:33:22.838Z,60.30
2023-03-30T20:35:25.738Z,59.77
2023-03-30T20:37:28.416Z,59.75
2023-03-30T20:39:34.231Z,59.77
2023-03-30T20:41:38.948Z,59.84
2023-03-30T20:43:56.461Z,59.20
2023-03-30T20:46:03.023Z,59.36
2023-03-30T20:48:25.915Z,59.58
2023-03-30T20:50:28.692Z,59.82
2023-03-30T20:52:31.419Z,59.93
2023-03-30T20:54:36.415Z,59.70
2023-03-30T20:56:39.416Z,59.39
2023-03-30T20:58:42.301Z,59.41
2023-03-30T21:00:44.849Z,59.30
2023-03-30T21:02:47.529Z,59.60
2023-03-30T21:04:50.595Z,59.57
2023-03-30T21:06:53.627Z,59.27
2023-03-30T21:08:59.088Z,58.72
2023-03-30T21:11:04.074Z,58.56
2023-03-30T21:13:06.816Z,58.46
2023-03-30T21:15:10.430Z,58.83
2023-03-30T21:17:13.653Z,59.09
2023-03-30T21:19:16.386Z,58.50
2023-03-30T21:21:19.551Z,58.48
2023-03-30T21:23:25.218Z,58.78
2023-03-30T21:25:29.447Z,58.91
2023-03-30T21:27:33.435Z,58.88
2023-03-30T21:29:36.038Z,58.99
2023-03-30T21:31:38.636Z,58.48
2023-03-30T21:33:41.608Z,58.41
2023-03-30T21:35:44.157Z,58.51
2023-03-30T21:37:46.724Z,58.36
2023-03-30T21:39:49.320Z,58.36
2023-03-30T21:41:51.880Z,58.44
2023-03-30T21:43:55.891Z,58.34
2023-03-30T21:46:00.022Z,58.72
2023-03-30T21:48:02.656Z,58.19
2023-03-30T21:50:06.345Z,58.26
2023-03-30T21:52:08.911Z,57.99
2023-03-30T21:54:12.379Z,58.21
2023-03-30T21:56:16.346Z,58.15
2023-03-30T21:58:18.949Z,58.52
2023-03-30T22:00:22.916Z,58.98
2023-03-30T22:02:25.815Z,58.28
2023-03-30T22:04:28.424Z,58.20
2023-03-30T22:06:31.161Z,58.67
2023-03-30T22:08:34.039Z,58.17
2023-03-30T22:10:36.788Z,58.66
2023-03-30T22:12:39.372Z,58.78
2023-03-30T22:14:41.922Z,58.34
2023-03-30T22:16:46.829Z,58.18
2023-03-30T22:18:49.786Z,58.10
2023-03-30T22:20:52.636Z,57.98
2023-03-30T22:22:56.524Z,58.00
2023-03-30T22:24:59.103Z,58.42
2023-03-30T22:27:01.706Z,58.62
2023-03-30T22:29:04.839Z,58.57
2023-03-30T22:31:08.204Z,58.71
2023-03-30T22:33:12.984Z,58.33
2023-03-30T22:35:15.743Z,58.54
2023-03-30T22:37:18.496Z,58.21
2023-03-30T22:39:21.088Z,57.89
2023-03-30T22:41:24.560Z,58.55
2023-03-30T22:43:27.155Z,58.72
2023-03-30T22:45:29.971Z,58.82
2023-03-30T22:47:32.552Z,59.11
2023-03-30T22:49:36.870Z,59.03
2023-03-30T22:51:46.005Z,58.34
2023-03-30T22:53:48.561Z,58.80
2023-03-30T22:55:51.121Z,58.59
2023-03-30T22:57:54.648Z,59.00
2023-03-30T22:59:57.231Z,58.99
2023-03-30T23:01:59.784Z,59.08
2023-03-30T23:04:06.223Z,59.15
2023-03-30T23:06:10.118Z,59.13
2023-03-30T23:08:12.709Z,59.15
2023-03-30T23:10:20.118Z,59.30
2023-03-30T23:12:22.677Z,59.14
2023-03-30T23:14:26.658Z,59.20
2023-03-30T23:16:29.261Z,59.41
2023-03-30T23:18:31.848Z,59.65
2023-03-30T23:20:34.385Z,59.74
2023-03-30T23:22:38.611Z,60.00
2023-03-30T23:24:41.143Z,60.06
2023-03-30T23:26:43.704Z,60.52
2023-03-30T23:28:46.249Z,60.64
2023-03-30T23:30:48.867Z,61.00
2023-03-30T23:32:51.555Z,61.18
2023-03-30T23:34:54.234Z,61.26
2023-03-30T23:36:59.543Z,60.98
2023-03-30T23:39:03.557Z,61.17
2023-03-30T23:41:07.620Z,60.97
2023-03-30T23:43:10.364Z,60.75
2023-03-30T23:45:12.917Z,60.19
2023-03-30T23:47:16.275Z,60.50
2023-03-30T23:49:19.110Z,61.06
2023-03-30T23:51:21.696Z,61.20
2023-03-30T23:53:26.278Z,61.06
2023-03-30T23:55:30.291Z,61.21
2023-03-30T23:57:32.888Z,60.88
2023-03-30T23:59:35.635Z,61.32
